sensor_id;sensor_type;location;lat;lon;timestamp;P1;durP1;ratioP1;P2;durP2;ratioP2
6997;SDS011;3539;47.982;12.238;2023-11-21T00:02:05;3.60;;;1.63;;
6997;SDS011;3539;47.982;12.238;2023-11-21T00:04:32;3.53;;;1.90;;
6997;SDS011;3539;47.982;12.238;2023-11-21T00:06:58;4.30;;;1.53;;
6997;SDS011;3539;47.982;12.238;2023-11-21T00:09:26;3.93;;;1.57;;
6997;SDS011;3539;47.982;12.238;2023-11-21T00:11:53;3.60;;;1.70;;
6997;SDS011;3539;47.982;12.238;2023-11-21T00:14:20;5.30;;;1.90;;
6997;SDS011;3539;47.982;12.238;2023-11-21T00:16:47;2.53;;;1.43;;
6997;SDS011;3539;47.982;12.238;2023-11-21T00:19:13;3.33;;;1.67;;
6997;SDS011;3539;47.982;12.238;2023-11-21T00:21:41;4.53;;;1.83;;
6997;SDS011;3539;47.982;12.238;2023-11-21T00:24:09;5.77;;;2.13;;
6997;SDS011;3539;47.982;12.238;2023-11-21T00:26:40;5.27;;;2.00;;
6997;SDS011;3539;47.982;12.238;2023-11-21T00:29:07;3.80;;;2.13;;
6997;SDS011;3539;47.982;12.238;2023-11-21T00:31:34;4.40;;;2.07;;
6997;SDS011;3539;47.982;12.238;2023-11-21T00:34:02;6.33;;;1.83;;
6997;SDS011;3539;47.982;12.238;2023-11-21T00:36:28;4.23;;;2.03;;
6997;SDS011;3539;47.982;12.238;2023-11-21T00:38:55;8.00;;;2.23;;
6997;SDS011;3539;47.982;12.238;2023-11-21T00:41:22;4.17;;;1.73;;
6997;SDS011;3539;47.982;12.238;2023-11-21T00:43:50;3.53;;;1.63;;
6997;SDS011;3539;47.982;12.238;2023-11-21T00:46:17;7.23;;;1.93;;
6997;SDS011;3539;47.982;12.238;2023-11-21T00:48:43;3.83;;;1.70;;
6997;SDS011;3539;47.982;12.238;2023-11-21T00:51:10;2.40;;;1.50;;
6997;SDS011;3539;47.982;12.238;2023-11-21T00:53:37;3.33;;;1.77;;
6997;SDS011;3539;47.982;12.238;2023-11-21T00:56:04;3.27;;;1.90;;
6997;SDS011;3539;47.982;12.238;2023-11-21T00:58:33;5.57;;;1.67;;
6997;SDS011;3539;47.982;12.238;2023-11-21T01:01:02;4.60;;;1.50;;
6997;SDS011;3539;47.982;12.238;2023-11-21T01:03:29;5.63;;;1.50;;
6997;SDS011;3539;47.982;12.238;2023-11-21T01:05:55;3.57;;;1.50;;
6997;SDS011;3539;47.982;12.238;2023-11-21T01:08:22;3.87;;;1.53;;
6997;SDS011;3539;47.982;12.238;2023-11-21T01:10:50;4.33;;;1.67;;
6997;SDS011;3539;47.982;12.238;2023-11-21T01:13:16;4.97;;;1.80;;
6997;SDS011;3539;47.982;12.238;2023-11-21T01:15:43;2.80;;;1.60;;
6997;SDS011;3539;47.982;12.238;2023-11-21T01:18:11;3.83;;;1.80;;
6997;SDS011;3539;47.982;12.238;2023-11-21T01:20:38;3.20;;;1.60;;
6997;SDS011;3539;47.982;12.238;2023-11-21T01:23:05;3.80;;;1.73;;
6997;SDS011;3539;47.982;12.238;2023-11-21T01:25:32;5.40;;;2.00;;
6997;SDS011;3539;47.982;12.238;2023-11-21T01:27:58;3.90;;;1.60;;
6997;SDS011;3539;47.982;12.238;2023-11-21T01:30:25;7.67;;;2.40;;
6997;SDS011;3539;47.982;12.238;2023-11-21T01:32:52;4.63;;;1.83;;
6997;SDS011;3539;47.982;12.238;2023-11-21T01:35:20;4.93;;;1.67;;
6997;SDS011;3539;47.982;12.238;2023-11-21T01:37:46;3.23;;;1.47;;
6997;SDS011;3539;47.982;12.238;2023-11-21T01:40:14;4.20;;;1.60;;
6997;SDS011;3539;47.982;12.238;2023-11-21T01:42:40;4.63;;;1.63;;
6997;SDS011;3539;47.982;12.238;2023-11-21T01:45:08;4.37;;;1.70;;
6997;SDS011;3539;47.982;12.238;2023-11-21T01:47:37;3.17;;;1.70;;
6997;SDS011;3539;47.982;12.238;2023-11-21T01:50:06;6.10;;;1.93;;
6997;SDS011;3539;47.982;12.238;2023-11-21T01:52:34;4.00;;;1.40;;
6997;SDS011;3539;47.982;12.238;2023-11-21T01:55:02;2.83;;;1.20;;
6997;SDS011;3539;47.982;12.238;2023-11-21T01:57:29;3.07;;;1.57;;
6997;SDS011;3539;47.982;12.238;2023-11-21T01:59:55;6.80;;;1.90;;
6997;SDS011;3539;47.982;12.238;2023-11-21T02:02:24;5.10;;;1.90;;
6997;SDS011;3539;47.982;12.238;2023-11-21T02:04:51;3.60;;;1.40;;
6997;SDS011;3539;47.982;12.238;2023-11-21T02:07:17;2.43;;;1.63;;
6997;SDS011;3539;47.982;12.238;2023-11-21T02:09:46;4.23;;;1.97;;
6997;SDS011;3539;47.982;12.238;2023-11-21T02:12:13;4.00;;;1.60;;
6997;SDS011;3539;47.982;12.238;2023-11-21T02:14:40;3.13;;;1.63;;
6997;SDS011;3539;47.982;12.238;2023-11-21T02:17:07;3.20;;;1.37;;
6997;SDS011;3539;47.982;12.238;2023-11-21T02:19:34;3.70;;;1.73;;
6997;SDS011;3539;47.982;12.238;2023-11-21T02:22:00;2.83;;;1.47;;
6997;SDS011;3539;47.982;12.238;2023-11-21T02:24:31;3.80;;;1.40;;
6997;SDS011;3539;47.982;12.238;2023-11-21T02:26:58;5.13;;;1.73;;
6997;SDS011;3539;47.982;12.238;2023-11-21T02:29:25;4.80;;;2.10;;
6997;SDS011;3539;47.982;12.238;2023-11-21T02:31:53;5.87;;;1.70;;
6997;SDS011;3539;47.982;12.238;2023-11-21T02:34:20;4.20;;;2.03;;
6997;SDS011;3539;47.982;12.238;2023-11-21T02:36:48;4.63;;;1.57;;
6997;SDS011;3539;47.982;12.238;2023-11-21T02:39:16;2.77;;;1.40;;
6997;SDS011;3539;47.982;12.238;2023-11-21T02:41:48;4.27;;;1.60;;
6997;SDS011;3539;47.982;12.238;2023-11-21T02:44:15;4.17;;;1.87;;
6997;SDS011;3539;47.982;12.238;2023-11-21T02:46:42;6.47;;;2.23;;
6997;SDS011;3539;47.982;12.238;2023-11-21T02:49:08;4.20;;;1.60;;
6997;SDS011;3539;47.982;12.238;2023-11-21T02:51:35;3.20;;;1.63;;
6997;SDS011;3539;47.982;12.238;2023-11-21T02:54:03;5.03;;;1.90;;
6997;SDS011;3539;47.982;12.238;2023-11-21T02:56:31;3.90;;;1.83;;
6997;SDS011;3539;47.982;12.238;2023-11-21T02:59:00;3.07;;;1.87;;
6997;SDS011;3539;47.982;12.238;2023-11-21T03:01:26;3.60;;;1.77;;
6997;SDS011;3539;47.982;12.238;2023-11-21T03:03:54;5.77;;;2.80;;
6997;SDS011;3539;47.982;12.238;2023-11-21T03:06:21;7.47;;;2.90;;
6997;SDS011;3539;47.982;12.238;2023-11-21T03:08:48;5.73;;;2.77;;
6997;SDS011;3539;47.982;12.238;2023-11-21T03:11:16;5.77;;;2.70;;
6997;SDS011;3539;47.982;12.238;2023-11-21T03:13:42;4.53;;;2.07;;
6997;SDS011;3539;47.982;12.238;2023-11-21T03:16:11;4.70;;;2.20;;
6997;SDS011;3539;47.982;12.238;2023-11-21T03:18:38;7.67;;;2.03;;
6997;SDS011;3539;47.982;12.238;2023-11-21T03:21:05;5.43;;;2.30;;
6997;SDS011;3539;47.982;12.238;2023-11-21T03:23:33;5.83;;;2.30;;
6997;SDS011;3539;47.982;12.238;2023-11-21T03:26:00;4.00;;;2.17;;
6997;SDS011;3539;47.982;12.238;2023-11-21T03:28:27;3.57;;;1.80;;
6997;SDS011;3539;47.982;12.238;2023-11-21T03:30:55;4.57;;;1.87;;
6997;SDS011;3539;47.982;12.238;2023-11-21T03:33:23;5.10;;;1.57;;
6997;SDS011;3539;47.982;12.238;2023-11-21T03:35:50;6.13;;;2.17;;
6997;SDS011;3539;47.982;12.238;2023-11-21T03:38:18;6.97;;;2.00;;
6997;SDS011;3539;47.982;12.238;2023-11-21T03:40:45;4.13;;;1.73;;
6997;SDS011;3539;47.982;12.238;2023-11-21T03:43:12;4.37;;;1.70;;
6997;SDS011;3539;47.982;12.238;2023-11-21T03:45:38;4.30;;;1.60;;
6997;SDS011;3539;47.982;12.238;2023-11-21T03:48:05;4.40;;;1.67;;
6997;SDS011;3539;47.982;12.238;2023-11-21T03:50:33;2.57;;;1.57;;
6997;SDS011;3539;47.982;12.238;2023-11-21T03:53:00;3.40;;;1.77;;
6997;SDS011;3539;47.982;12.238;2023-11-21T03:55:27;3.03;;;1.73;;
6997;SDS011;3539;47.982;12.238;2023-11-21T03:57:54;2.90;;;1.60;;
6997;SDS011;3539;47.982;12.238;2023-11-21T04:00:22;4.33;;;2.07;;
6997;SDS011;3539;47.982;12.238;2023-11-21T04:02:49;5.07;;;1.90;;
6997;SDS011;3539;47.982;12.238;2023-11-21T04:05:16;3.93;;;1.73;;
6997;SDS011;3539;47.982;12.238;2023-11-21T04:07:45;5.07;;;1.70;;
6997;SDS011;3539;47.982;12.238;2023-11-21T04:10:11;3.10;;;1.87;;
6997;SDS011;3539;47.982;12.238;2023-11-21T04:12:38;5.20;;;2.73;;
6997;SDS011;3539;47.982;12.238;2023-11-21T04:15:05;3.43;;;1.70;;
6997;SDS011;3539;47.982;12.238;2023-11-21T04:17:34;3.27;;;1.57;;
6997;SDS011;3539;47.982;12.238;2023-11-21T04:20:01;3.10;;;1.70;;
6997;SDS011;3539;47.982;12.238;2023-11-21T04:22:28;4.07;;;1.30;;
6997;SDS011;3539;47.982;12.238;2023-11-21T04:24:56;4.17;;;1.30;;
6997;SDS011;3539;47.982;12.238;2023-11-21T04:27:23;3.33;;;1.50;;
6997;SDS011;3539;47.982;12.238;2023-11-21T04:29:50;2.57;;;1.30;;
6997;SDS011;3539;47.982;12.238;2023-11-21T04:32:16;1.30;;;1.07;;
6997;SDS011;3539;47.982;12.238;2023-11-21T04:34:43;2.73;;;1.40;;
6997;SDS011;3539;47.982;12.238;2023-11-21T04:37:10;4.43;;;1.43;;
6997;SDS011;3539;47.982;12.238;2023-11-21T04:39:37;3.50;;;1.50;;
6997;SDS011;3539;47.982;12.238;2023-11-21T04:42:05;3.80;;;1.30;;
6997;SDS011;3539;47.982;12.238;2023-11-21T04:44:32;1.33;;;1.10;;
6997;SDS011;3539;47.982;12.238;2023-11-21T04:46:58;2.17;;;1.27;;
6997;SDS011;3539;47.982;12.238;2023-11-21T04:49:25;2.20;;;1.27;;
6997;SDS011;3539;47.982;12.238;2023-11-21T04:51:52;3.40;;;1.37;;
6997;SDS011;3539;47.982;12.238;2023-11-21T04:54:19;3.90;;;1.30;;
6997;SDS011;3539;47.982;12.238;2023-11-21T04:56:46;3.08;;;1.58;;
6997;SDS011;3539;47.982;12.238;2023-11-21T04:59:14;3.57;;;1.30;;
6997;SDS011;3539;47.982;12.238;2023-11-21T05:01:41;1.93;;;1.27;;
6997;SDS011;3539;47.982;12.238;2023-11-21T05:04:08;3.93;;;1.50;;
6997;SDS011;3539;47.982;12.238;2023-11-21T05:06:34;2.87;;;1.50;;
6997;SDS011;3539;47.982;12.238;2023-11-21T05:09:01;1.77;;;1.20;;
6997;SDS011;3539;47.982;12.238;2023-11-21T05:11:28;3.10;;;1.47;;
6997;SDS011;3539;47.982;12.238;2023-11-21T05:13:55;2.97;;;1.60;;
6997;SDS011;3539;47.982;12.238;2023-11-21T05:16:25;4.17;;;3.00;;
6997;SDS011;3539;47.982;12.238;2023-11-21T05:18:53;5.37;;;2.40;;
6997;SDS011;3539;47.982;12.238;2023-11-21T05:21:25;3.87;;;2.00;;
6997;SDS011;3539;47.982;12.238;2023-11-21T05:23:52;5.60;;;1.93;;
6997;SDS011;3539;47.982;12.238;2023-11-21T05:26:18;6.07;;;1.57;;
6997;SDS011;3539;47.982;12.238;2023-11-21T05:28:45;2.83;;;1.43;;
6997;SDS011;3539;47.982;12.238;2023-11-21T05:31:12;3.30;;;1.50;;
6997;SDS011;3539;47.982;12.238;2023-11-21T05:33:41;4.53;;;1.90;;
6997;SDS011;3539;47.982;12.238;2023-11-21T05:36:08;6.83;;;2.17;;
6997;SDS011;3539;47.982;12.238;2023-11-21T05:38:36;6.20;;;2.10;;
6997;SDS011;3539;47.982;12.238;2023-11-21T05:41:02;3.07;;;2.00;;
6997;SDS011;3539;47.982;12.238;2023-11-21T05:43:28;4.03;;;2.07;;
6997;SDS011;3539;47.982;12.238;2023-11-21T05:45:55;4.43;;;2.00;;
6997;SDS011;3539;47.982;12.238;2023-11-21T05:48:22;5.63;;;2.10;;
6997;SDS011;3539;47.982;12.238;2023-11-21T05:50:52;5.13;;;1.80;;
6997;SDS011;3539;47.982;12.238;2023-11-21T05:53:19;3.80;;;1.63;;
6997;SDS011;3539;47.982;12.238;2023-11-21T05:55:46;2.83;;;1.60;;
6997;SDS011;3539;47.982;12.238;2023-11-21T05:58:13;4.63;;;1.57;;
6997;SDS011;3539;47.982;12.238;2023-11-21T06:00:40;4.03;;;1.53;;
6997;SDS011;3539;47.982;12.238;2023-11-21T06:03:06;3.50;;;1.83;;
6997;SDS011;3539;47.982;12.238;2023-11-21T06:05:33;1.87;;;1.40;;
6997;SDS011;3539;47.982;12.238;2023-11-21T06:08:01;3.43;;;1.60;;
6997;SDS011;3539;47.982;12.238;2023-11-21T06:10:29;3.33;;;2.00;;
6997;SDS011;3539;47.982;12.238;2023-11-21T06:12:55;6.10;;;1.80;;
6997;SDS011;3539;47.982;12.238;2023-11-21T06:15:23;2.70;;;1.60;;
6997;SDS011;3539;47.982;12.238;2023-11-21T06:17:49;3.53;;;1.70;;
6997;SDS011;3539;47.982;12.238;2023-11-21T06:20:18;3.97;;;1.47;;
6997;SDS011;3539;47.982;12.238;2023-11-21T06:22:47;4.93;;;1.60;;
6997;SDS011;3539;47.982;12.238;2023-11-21T06:25:16;3.77;;;1.80;;
6997;SDS011;3539;47.982;12.238;2023-11-21T06:27:43;5.30;;;2.43;;
6997;SDS011;3539;47.982;12.238;2023-11-21T06:30:11;5.23;;;2.00;;
6997;SDS011;3539;47.982;12.238;2023-11-21T06:32:39;7.53;;;2.00;;
6997;SDS011;3539;47.982;12.238;2023-11-21T06:35:06;8.07;;;2.03;;
6997;SDS011;3539;47.982;12.238;2023-11-21T06:37:35;3.93;;;2.00;;
6997;SDS011;3539;47.982;12.238;2023-11-21T06:40:02;2.17;;;1.83;;
6997;SDS011;3539;47.982;12.238;2023-11-21T06:42:31;5.00;;;1.93;;
6997;SDS011;3539;47.982;12.238;2023-11-21T06:44:58;5.27;;;1.70;;
6997;SDS011;3539;47.982;12.238;2023-11-21T06:47:28;2.90;;;1.60;;
6997;SDS011;3539;47.982;12.238;2023-11-21T06:49:55;4.47;;;1.97;;
6997;SDS011;3539;47.982;12.238;2023-11-21T06:52:22;4.13;;;2.30;;
6997;SDS011;3539;47.982;12.238;2023-11-21T06:54:49;3.27;;;1.90;;
6997;SDS011;3539;47.982;12.238;2023-11-21T06:57:15;3.00;;;2.03;;
6997;SDS011;3539;47.982;12.238;2023-11-21T06:59:44;9.37;;;2.77;;
6997;SDS011;3539;47.982;12.238;2023-11-21T07:02:10;4.73;;;2.20;;
6997;SDS011;3539;47.982;12.238;2023-11-21T07:04:37;6.20;;;2.10;;
6997;SDS011;3539;47.982;12.238;2023-11-21T07:07:04;4.33;;;1.97;;
6997;SDS011;3539;47.982;12.238;2023-11-21T07:09:32;4.13;;;2.20;;
6997;SDS011;3539;47.982;12.238;2023-11-21T07:11:58;4.70;;;2.33;;
6997;SDS011;3539;47.982;12.238;2023-11-21T07:14:25;3.43;;;2.03;;
6997;SDS011;3539;47.982;12.238;2023-11-21T07:16:53;3.80;;;2.23;;
6997;SDS011;3539;47.982;12.238;2023-11-21T07:19:21;3.23;;;2.30;;
6997;SDS011;3539;47.982;12.238;2023-11-21T07:21:48;4.97;;;2.70;;
6997;SDS011;3539;47.982;12.238;2023-11-21T07:24:16;5.87;;;2.37;;
6997;SDS011;3539;47.982;12.238;2023-11-21T07:26:43;6.27;;;2.43;;
6997;SDS011;3539;47.982;12.238;2023-11-21T07:29:09;5.87;;;2.27;;
6997;SDS011;3539;47.982;12.238;2023-11-21T07:31:38;4.10;;;2.13;;
6997;SDS011;3539;47.982;12.238;2023-11-21T07:34:07;5.93;;;2.27;;
6997;SDS011;3539;47.982;12.238;2023-11-21T07:36:34;6.37;;;2.20;;
6997;SDS011;3539;47.982;12.238;2023-11-21T07:39:02;2.87;;;1.80;;
6997;SDS011;3539;47.982;12.238;2023-11-21T07:41:28;3.60;;;2.00;;
6997;SDS011;3539;47.982;12.238;2023-11-21T07:43:55;6.90;;;2.53;;
6997;SDS011;3539;47.982;12.238;2023-11-21T07:46:22;3.43;;;2.00;;
6997;SDS011;3539;47.982;12.238;2023-11-21T07:48:49;6.27;;;2.70;;
6997;SDS011;3539;47.982;12.238;2023-11-21T07:51:18;5.27;;;2.60;;
6997;SDS011;3539;47.982;12.238;2023-11-21T07:53:45;5.57;;;3.07;;
6997;SDS011;3539;47.982;12.238;2023-11-21T07:56:12;5.37;;;3.00;;
6997;SDS011;3539;47.982;12.238;2023-11-21T07:58:39;6.53;;;2.93;;
6997;SDS011;3539;47.982;12.238;2023-11-21T08:01:05;5.30;;;2.80;;
6997;SDS011;3539;47.982;12.238;2023-11-21T08:03:33;4.80;;;2.67;;
6997;SDS011;3539;47.982;12.238;2023-11-21T08:05:59;5.60;;;2.60;;
6997;SDS011;3539;47.982;12.238;2023-11-21T08:08:29;4.97;;;3.23;;
6997;SDS011;3539;47.982;12.238;2023-11-21T08:10:57;3.67;;;2.43;;
6997;SDS011;3539;47.982;12.238;2023-11-21T08:13:26;6.10;;;3.07;;
6997;SDS011;3539;47.982;12.238;2023-11-21T08:15:54;5.83;;;3.00;;
6997;SDS011;3539;47.982;12.238;2023-11-21T08:18:23;4.47;;;3.07;;
6997;SDS011;3539;47.982;12.238;2023-11-21T08:20:50;5.63;;;2.63;;
6997;SDS011;3539;47.982;12.238;2023-11-21T08:23:17;4.57;;;3.40;;
6997;SDS011;3539;47.982;12.238;2023-11-21T08:25:45;4.50;;;2.50;;
6997;SDS011;3539;47.982;12.238;2023-11-21T08:28:13;5.47;;;2.23;;
6997;SDS011;3539;47.982;12.238;2023-11-21T08:30:41;2.60;;;2.03;;
6997;SDS011;3539;47.982;12.238;2023-11-21T08:33:08;4.80;;;1.90;;
6997;SDS011;3539;47.982;12.238;2023-11-21T08:35:36;2.23;;;1.70;;
6997;SDS011;3539;47.982;12.238;2023-11-21T08:38:03;2.53;;;1.70;;
6997;SDS011;3539;47.982;12.238;2023-11-21T08:40:30;3.00;;;1.80;;
6997;SDS011;3539;47.982;12.238;2023-11-21T08:42:58;2.90;;;1.80;;
6997;SDS011;3539;47.982;12.238;2023-11-21T08:45:25;4.03;;;1.90;;
6997;SDS011;3539;47.982;12.238;2023-11-21T08:47:52;2.67;;;1.70;;
6997;SDS011;3539;47.982;12.238;2023-11-21T08:50:19;3.43;;;1.93;;
6997;SDS011;3539;47.982;12.238;2023-11-21T08:52:46;30.87;;;16.93;;
6997;SDS011;3539;47.982;12.238;2023-11-21T08:55:12;8.97;;;5.17;;
6997;SDS011;3539;47.982;12.238;2023-11-21T08:57:39;6.70;;;4.33;;
6997;SDS011;3539;47.982;12.238;2023-11-21T09:00:09;4.83;;;3.20;;
6997;SDS011;3539;47.982;12.238;2023-11-21T09:02:37;4.77;;;2.00;;
6997;SDS011;3539;47.982;12.238;2023-11-21T09:05:04;3.43;;;2.20;;
6997;SDS011;3539;47.982;12.238;2023-11-21T09:07:32;6.87;;;2.07;;
6997;SDS011;3539;47.982;12.238;2023-11-21T09:09:59;3.60;;;1.87;;
6997;SDS011;3539;47.982;12.238;2023-11-21T09:12:25;3.77;;;2.10;;
6997;SDS011;3539;47.982;12.238;2023-11-21T09:14:52;4.67;;;2.37;;
6997;SDS011;3539;47.982;12.238;2023-11-21T09:17:20;2.97;;;2.20;;
6997;SDS011;3539;47.982;12.238;2023-11-21T09:19:47;3.13;;;1.70;;
6997;SDS011;3539;47.982;12.238;2023-11-21T09:22:16;3.67;;;2.33;;
6997;SDS011;3539;47.982;12.238;2023-11-21T09:24:43;4.53;;;3.07;;
6997;SDS011;3539;47.982;12.238;2023-11-21T09:27:09;5.20;;;2.87;;
6997;SDS011;3539;47.982;12.238;2023-11-21T09:29:36;4.80;;;3.67;;
6997;SDS011;3539;47.982;12.238;2023-11-21T09:32:04;5.43;;;3.20;;
6997;SDS011;3539;47.982;12.238;2023-11-21T09:34:33;7.87;;;5.67;;
6997;SDS011;3539;47.982;12.238;2023-11-21T09:37:01;7.40;;;5.40;;
6997;SDS011;3539;47.982;12.238;2023-11-21T09:39:30;3.13;;;2.17;;
6997;SDS011;3539;47.982;12.238;2023-11-21T09:41:59;5.00;;;3.53;;
6997;SDS011;3539;47.982;12.238;2023-11-21T09:44:32;2.70;;;2.00;;
6997;SDS011;3539;47.982;12.238;2023-11-21T09:47:02;2.70;;;1.97;;
6997;SDS011;3539;47.982;12.238;2023-11-21T09:49:29;2.53;;;2.10;;
6997;SDS011;3539;47.982;12.238;2023-11-21T09:52:01;3.87;;;1.93;;
6997;SDS011;3539;47.982;12.238;2023-11-21T09:54:29;4.33;;;1.80;;
6997;SDS011;3539;47.982;12.238;2023-11-21T09:56:57;2.53;;;1.70;;
6997;SDS011;3539;47.982;12.238;2023-11-21T09:59:24;2.13;;;1.50;;
6997;SDS011;3539;47.982;12.238;2023-11-21T10:01:55;3.13;;;1.80;;
6997;SDS011;3539;47.982;12.238;2023-11-21T10:04:23;4.90;;;1.80;;
6997;SDS011;3539;47.982;12.238;2023-11-21T10:06:51;8.23;;;1.80;;
6997;SDS011;3539;47.982;12.238;2023-11-21T10:09:19;2.77;;;1.93;;
6997;SDS011;3539;47.982;12.238;2023-11-21T10:11:47;3.53;;;1.80;;
6997;SDS011;3539;47.982;12.238;2023-11-21T10:14:16;2.00;;;1.60;;
6997;SDS011;3539;47.982;12.238;2023-11-21T10:16:45;3.50;;;1.30;;
6997;SDS011;3539;47.982;12.238;2023-11-21T10:19:13;2.27;;;1.50;;
6997;SDS011;3539;47.982;12.238;2023-11-21T10:21:41;1.87;;;1.50;;
6997;SDS011;3539;47.982;12.238;2023-11-21T10:24:09;2.70;;;1.40;;
6997;SDS011;3539;47.982;12.238;2023-11-21T10:26:37;4.53;;;1.47;;
6997;SDS011;3539;47.982;12.238;2023-11-21T10:29:04;1.87;;;1.50;;
6997;SDS011;3539;47.982;12.238;2023-11-21T10:31:32;3.03;;;1.63;;
6997;SDS011;3539;47.982;12.238;2023-11-21T10:34:12;2.77;;;1.73;;
6997;SDS011;3539;47.982;12.238;2023-11-21T10:36:39;1.57;;;1.23;;
6997;SDS011;3539;47.982;12.238;2023-11-21T10:39:06;2.50;;;2.30;;
6997;SDS011;3539;47.982;12.238;2023-11-21T10:41:34;2.23;;;1.50;;
6997;SDS011;3539;47.982;12.238;2023-11-21T10:44:01;2.57;;;1.57;;
6997;SDS011;3539;47.982;12.238;2023-11-21T10:46:29;2.33;;;1.37;;
6997;SDS011;3539;47.982;12.238;2023-11-21T10:48:56;3.13;;;1.60;;
6997;SDS011;3539;47.982;12.238;2023-11-21T10:51:23;2.47;;;1.57;;
6997;SDS011;3539;47.982;12.238;2023-11-21T10:53:51;2.57;;;1.20;;
6997;SDS011;3539;47.982;12.238;2023-11-21T10:56:18;2.43;;;1.47;;
6997;SDS011;3539;47.982;12.238;2023-11-21T10:58:48;1.37;;;1.27;;
6997;SDS011;3539;47.982;12.238;2023-11-21T11:01:15;1.83;;;1.30;;
6997;SDS011;3539;47.982;12.238;2023-11-21T11:03:44;1.77;;;1.47;;
6997;SDS011;3539;47.982;12.238;2023-11-21T11:06:11;3.15;;;1.20;;
6997;SDS011;3539;47.982;12.238;2023-11-21T11:08:39;1.40;;;1.20;;
6997;SDS011;3539;47.982;12.238;2023-11-21T11:11:06;2.20;;;1.40;;
6997;SDS011;3539;47.982;12.238;2023-11-21T11:13:35;3.00;;;1.30;;
6997;SDS011;3539;47.982;12.238;2023-11-21T11:16:04;1.30;;;1.20;;
6997;SDS011;3539;47.982;12.238;2023-11-21T11:18:33;2.13;;;1.17;;
6997;SDS011;3539;47.982;12.238;2023-11-21T11:21:01;1.93;;;1.27;;
6997;SDS011;3539;47.982;12.238;2023-11-21T11:23:37;1.57;;;1.47;;
6997;SDS011;3539;47.982;12.238;2023-11-21T11:26:16;2.23;;;1.07;;
6997;SDS011;3539;47.982;12.238;2023-11-21T11:28:55;3.43;;;2.30;;
6997;SDS011;3539;47.982;12.238;2023-11-21T11:31:31;1.67;;;1.07;;
6997;SDS011;3539;47.982;12.238;2023-11-21T11:34:08;1.33;;;0.80;;
6997;SDS011;3539;47.982;12.238;2023-11-21T11:36:44;4.20;;;1.10;;
6997;SDS011;3539;47.982;12.238;2023-11-21T11:39:27;1.20;;;1.00;;
6997;SDS011;3539;47.982;12.238;2023-11-21T11:41:55;1.70;;;0.90;;
6997;SDS011;3539;47.982;12.238;2023-11-21T11:47:19;1.30;;;1.00;;
6997;SDS011;3539;47.982;12.238;2023-11-21T11:50:00;3.00;;;1.30;;
6997;SDS011;3539;47.982;12.238;2023-11-21T11:52:33;1.93;;;1.20;;
6997;SDS011;3539;47.982;12.238;2023-11-21T11:55:00;2.30;;;1.23;;
6997;SDS011;3539;47.982;12.238;2023-11-21T11:57:29;1.30;;;0.87;;
6997;SDS011;3539;47.982;12.238;2023-11-21T12:00:13;1.10;;;1.00;;
6997;SDS011;3539;47.982;12.238;2023-11-21T12:02:45;1.27;;;1.17;;
6997;SDS011;3539;47.982;12.238;2023-11-21T12:05:13;1.17;;;1.00;;
6997;SDS011;3539;47.982;12.238;2023-11-21T12:07:44;4.90;;;1.13;;
6997;SDS011;3539;47.982;12.238;2023-11-21T12:10:14;1.10;;;0.90;;
6997;SDS011;3539;47.982;12.238;2023-11-21T12:12:43;2.77;;;1.20;;
6997;SDS011;3539;47.982;12.238;2023-11-21T12:15:11;1.10;;;1.00;;
6997;SDS011;3539;47.982;12.238;2023-11-21T12:17:38;1.67;;;1.20;;
6997;SDS011;3539;47.982;12.238;2023-11-21T12:20:06;1.10;;;1.00;;
6997;SDS011;3539;47.982;12.238;2023-11-21T12:22:42;1.00;;;1.00;;
6997;SDS011;3539;47.982;12.238;2023-11-21T12:25:09;1.70;;;1.10;;
6997;SDS011;3539;47.982;12.238;2023-11-21T12:27:41;2.57;;;1.30;;
6997;SDS011;3539;47.982;12.238;2023-11-21T12:30:09;1.13;;;1.00;;
6997;SDS011;3539;47.982;12.238;2023-11-21T12:32:38;1.87;;;1.60;;
6997;SDS011;3539;47.982;12.238;2023-11-21T12:35:08;2.33;;;1.80;;
6997;SDS011;3539;47.982;12.238;2023-11-21T12:37:36;11.57;;;7.13;;
6997;SDS011;3539;47.982;12.238;2023-11-21T12:40:04;14.70;;;10.00;;
6997;SDS011;3539;47.982;12.238;2023-11-21T12:42:33;25.00;;;14.20;;
6997;SDS011;3539;47.982;12.238;2023-11-21T12:45:10;5.90;;;4.18;;
6997;SDS011;3539;47.982;12.238;2023-11-21T12:47:45;2.13;;;1.53;;
6997;SDS011;3539;47.982;12.238;2023-11-21T12:50:14;3.03;;;1.20;;
6997;SDS011;3539;47.982;12.238;2023-11-21T12:52:41;1.97;;;1.30;;
6997;SDS011;3539;47.982;12.238;2023-11-21T12:55:15;1.60;;;1.50;;
6997;SDS011;3539;47.982;12.238;2023-11-21T12:57:43;1.87;;;1.40;;
6997;SDS011;3539;47.982;12.238;2023-11-21T13:00:11;1.70;;;1.37;;
6997;SDS011;3539;47.982;12.238;2023-11-21T13:02:51;3.13;;;1.60;;
6997;SDS011;3539;47.982;12.238;2023-11-21T13:05:26;2.10;;;1.30;;
6997;SDS011;3539;47.982;12.238;2023-11-21T13:07:56;1.10;;;1.00;;
6997;SDS011;3539;47.982;12.238;2023-11-21T13:10:24;1.37;;;1.23;;
6997;SDS011;3539;47.982;12.238;2023-11-21T13:12:55;2.67;;;1.50;;
6997;SDS011;3539;47.982;12.238;2023-11-21T13:15:25;1.77;;;1.20;;
6997;SDS011;3539;47.982;12.238;2023-11-21T13:17:53;1.20;;;1.10;;
6997;SDS011;3539;47.982;12.238;2023-11-21T13:20:21;1.53;;;1.00;;
6997;SDS011;3539;47.982;12.238;2023-11-21T13:22:51;3.77;;;1.23;;
6997;SDS011;3539;47.982;12.238;2023-11-21T13:25:20;1.53;;;1.10;;
6997;SDS011;3539;47.982;12.238;2023-11-21T13:27:47;1.43;;;1.20;;
6997;SDS011;3539;47.982;12.238;2023-11-21T13:30:15;2.40;;;1.23;;
6997;SDS011;3539;47.982;12.238;2023-11-21T13:32:42;1.10;;;1.00;;
6997;SDS011;3539;47.982;12.238;2023-11-21T13:35:11;2.72;;;1.33;;
6997;SDS011;3539;47.982;12.238;2023-11-21T13:37:46;1.83;;;1.10;;
6997;SDS011;3539;47.982;12.238;2023-11-21T13:40:18;1.10;;;1.03;;
6997;SDS011;3539;47.982;12.238;2023-11-21T13:42:48;1.80;;;1.23;;
6997;SDS011;3539;47.982;12.238;2023-11-21T13:45:18;2.07;;;1.00;;
6997;SDS011;3539;47.982;12.238;2023-11-21T13:47:48;1.90;;;1.30;;
6997;SDS011;3539;47.982;12.238;2023-11-21T13:50:16;5.00;;;3.07;;
6997;SDS011;3539;47.982;12.238;2023-11-21T13:52:47;22.37;;;13.37;;
6997;SDS011;3539;47.982;12.238;2023-11-21T13:55:17;9.03;;;6.07;;
6997;SDS011;3539;47.982;12.238;2023-11-21T13:57:44;2.40;;;1.30;;
6997;SDS011;3539;47.982;12.238;2023-11-21T14:00:16;2.80;;;1.58;;
6997;SDS011;3539;47.982;12.238;2023-11-21T14:02:59;2.07;;;1.23;;
6997;SDS011;3539;47.982;12.238;2023-11-21T14:05:34;1.13;;;1.03;;
6997;SDS011;3539;47.982;12.238;2023-11-21T14:08:06;2.33;;;1.70;;
6997;SDS011;3539;47.982;12.238;2023-11-21T14:10:37;1.40;;;1.30;;
6997;SDS011;3539;47.982;12.238;2023-11-21T14:13:08;2.10;;;1.67;;
6997;SDS011;3539;47.982;12.238;2023-11-21T14:15:37;1.43;;;1.30;;
6997;SDS011;3539;47.982;12.238;2023-11-21T14:18:07;1.37;;;1.10;;
6997;SDS011;3539;47.982;12.238;2023-11-21T14:20:35;1.80;;;1.70;;
6997;SDS011;3539;47.982;12.238;2023-11-21T14:23:02;1.63;;;1.20;;
6997;SDS011;3539;47.982;12.238;2023-11-21T14:25:31;1.33;;;1.23;;
6997;SDS011;3539;47.982;12.238;2023-11-21T14:27:59;19.73;;;14.80;;
6997;SDS011;3539;47.982;12.238;2023-11-21T14:30:28;176.53;;;71.20;;
6997;SDS011;3539;47.982;12.238;2023-11-21T14:32:57;131.23;;;54.03;;
6997;SDS011;3539;47.982;12.238;2023-11-21T14:35:23;16.43;;;7.63;;
6997;SDS011;3539;47.982;12.238;2023-11-21T14:37:51;10.93;;;7.63;;
6997;SDS011;3539;47.982;12.238;2023-11-21T14:40:18;5.30;;;3.67;;
6997;SDS011;3539;47.982;12.238;2023-11-21T14:42:49;7.53;;;4.30;;
6997;SDS011;3539;47.982;12.238;2023-11-21T14:45:19;16.17;;;9.30;;
6997;SDS011;3539;47.982;12.238;2023-11-21T14:47:47;4.87;;;3.70;;
6997;SDS011;3539;47.982;12.238;2023-11-21T14:50:22;3.83;;;2.03;;
6997;SDS011;3539;47.982;12.238;2023-11-21T14:53:06;2.03;;;1.80;;
6997;SDS011;3539;47.982;12.238;2023-11-21T14:55:34;1.17;;;0.93;;
6997;SDS011;3539;47.982;12.238;2023-11-21T14:58:15;1.17;;;1.00;;
6997;SDS011;3539;47.982;12.238;2023-11-21T15:00:52;0.77;;;0.70;;
6997;SDS011;3539;47.982;12.238;2023-11-21T15:03:23;0.70;;;0.70;;
6997;SDS011;3539;47.982;12.238;2023-11-21T15:06:09;1.10;;;1.00;;
6997;SDS011;3539;47.982;12.238;2023-11-21T15:08:55;2.50;;;2.30;;
6997;SDS011;3539;47.982;12.238;2023-11-21T15:11:45;32.33;;;17.73;;